Time;durP1;ratioP1;P1;durP2;ratioP2;P2;SDS_P1;SDS_P2;PMS_P1;PMS_P2;Temp;Humidity;BMP_temperature;BMP_pressure;BME280_temperature;BME280_humidity;BME280_pressure;Samples;Min_cycle;Max_cycle;Signal;HPM_P1;HPM_P2
2023/06/22 00:00:09;;;;;;;14.63;11.02;;;;;;;;;;6235544;23;20039;-88
2023/06/22 00:02:35;;;;;;;13.35;10.18;;;;;;;;;;6236247;23;20004;-88
2023/06/22 00:05:01;;;;;;;16.60;10.95;;;;;;;;;;6238540;23;20015;-88
2023/06/22 00:07:27;;;;;;;15.20;12.25;;;;;;;;;;6223368;23;20020;-88
2023/06/22 00:09:53;;;;;;;18.88;12.35;;;;;;;;;;6210391;23;20009;-88
2023/06/22 00:12:19;;;;;;;17.10;12.18;;;;;;;;;;6210859;23;20017;-89
2023/06/22 00:14:45;;;;;;;18.55;12.40;;;;;;;;;;6211819;23;20021;-88
2023/06/22 00:17:11;;;;;;;19.10;13.75;;;;;;;;;;6211766;23;20497;-88
2023/06/22 00:19:40;;;;;;;18.40;12.85;;;;;;;;;;6209893;23;20067;-88
2023/06/22 00:22:06;;;;;;;15.48;13.15;;;;;;;;;;6210102;23;20389;-88
2023/06/22 00:24:32;;;;;;;17.55;13.75;;;;;;;;;;6210530;23;20020;-88
2023/06/22 00:26:58;;;;;;;18.40;12.80;;;;;;;;;;6211880;23;20109;-88
2023/06/22 00:29:24;;;;;;;16.88;13.75;;;;;;;;;;6211053;23;20066;-88
2023/06/22 00:31:50;;;;;;;17.77;13.75;;;;;;;;;;6211303;23;20012;-88
2023/06/22 00:34:16;;;;;;;19.08;13.95;;;;;;;;;;6211611;23;20071;-88
2023/06/22 00:36:42;;;;;;;17.33;13.32;;;;;;;;;;6210109;23;20013;-88
2023/06/22 00:39:08;;;;;;;19.17;13.52;;;;;;;;;;6209916;23;20384;-88
2023/06/22 00:41:34;;;;;;;17.63;12.82;;;;;;;;;;6209710;23;20016;-88
2023/06/22 00:44:00;;;;;;;17.23;13.07;;;;;;;;;;6209784;23;20016;-88
2023/06/22 00:46:26;;;;;;;15.60;12.23;;;;;;;;;;6210980;23;20091;-88
2023/06/22 00:48:52;;;;;;;17.42;13.20;;;;;;;;;;6211812;23;20106;-88
2023/06/22 00:51:23;;;;;;;20.17;13.77;;;;;;;;;;6211377;23;20008;-89
2023/06/22 00:53:50;;;;;;;19.67;13.45;;;;;;;;;;6211992;23;20186;-88
2023/06/22 00:56:19;;;;;;;18.60;14.70;;;;;;;;;;6186067;23;20442;-87
2023/06/22 00:58:47;;;;;;;21.85;15.80;;;;;;;;;;6213033;23;20512;-88
2023/06/22 01:01:14;;;;;;;21.60;15.90;;;;;;;;;;6185137;23;20009;-88
2023/06/22 01:03:40;;;;;;;22.08;16.55;;;;;;;;;;6211663;23;20016;-89
2023/06/22 01:06:16;;;;;;;24.02;16.95;;;;;;;;;;6213375;23;20320;-88
2023/06/22 01:08:49;;;;;;;21.58;17.25;;;;;;;;;;6211548;23;20012;-88
2023/06/22 01:11:22;;;;;;;22.65;16.67;;;;;;;;;;6210699;23;20012;-88
2023/06/22 01:13:53;;;;;;;19.38;14.85;;;;;;;;;;6212971;23;20024;-89
2023/06/22 01:16:23;;;;;;;23.02;15.35;;;;;;;;;;6211199;23;20011;-88
2023/06/22 01:18:51;;;;;;;19.33;14.82;;;;;;;;;;6211065;23;20505;-88
2023/06/22 01:21:19;;;;;;;17.77;13.23;;;;;;;;;;6211826;23;20092;-88
2023/06/22 01:23:55;;;;;;;21.60;14.75;;;;;;;;;;6186896;23;20016;-88
2023/06/22 01:26:27;;;;;;;18.23;14.85;;;;;;;;;;6186425;23;20024;-88
2023/06/22 01:28:55;;;;;;;18.63;14.32;;;;;;;;;;6217558;23;20023;-88
2023/06/22 01:31:24;;;;;;;23.00;15.52;;;;;;;;;;6225442;23;20017;-88
2023/06/22 01:33:58;;;;;;;18.08;13.98;;;;;;;;;;6221222;23;20012;-89
2023/06/22 01:36:24;;;;;;;20.27;14.05;;;;;;;;;;6213601;23;20342;-89
2023/06/22 01:38:51;;;;;;;20.40;14.15;;;;;;;;;;6211308;23;20013;-88
2023/06/22 01:41:18;;;;;;;22.10;14.95;;;;;;;;;;6212819;23;20143;-88
2023/06/22 01:43:44;;;;;;;19.90;14.75;;;;;;;;;;6211405;23;20020;-89
2023/06/22 01:46:10;;;;;;;20.65;14.60;;;;;;;;;;6211196;23;20013;-88
2023/06/22 01:48:37;;;;;;;16.48;12.40;;;;;;;;;;6211802;23;20023;-86
2023/06/22 01:51:03;;;;;;;13.63;11.00;;;;;;;;;;6211829;23;20055;-88
2023/06/22 01:53:29;;;;;;;15.15;11.95;;;;;;;;;;6212743;23;20386;-89
2023/06/22 01:55:57;;;;;;;14.23;11.15;;;;;;;;;;6212886;23;20017;-89
2023/06/22 01:58:24;;;;;;;16.50;12.30;;;;;;;;;;6211933;23;20017;-90
2023/06/22 02:00:53;;;;;;;14.50;12.68;;;;;;;;;;6210532;23;20008;-89
2023/06/22 02:03:22;;;;;;;17.00;11.43;;;;;;;;;;6212628;23;20017;-89
2023/06/22 02:05:53;;;;;;;15.52;12.75;;;;;;;;;;6213773;23;20377;-89
2023/06/22 02:08:24;;;;;;;15.13;12.27;;;;;;;;;;6210761;23;20048;-88
2023/06/22 02:10:51;;;;;;;12.98;10.43;;;;;;;;;;6210656;23;20017;-88
2023/06/22 02:13:17;;;;;;;13.93;9.82;;;;;;;;;;6210906;23;20074;-89
2023/06/22 02:15:44;;;;;;;17.05;11.63;;;;;;;;;;6212816;23;20012;-88
2023/06/22 02:18:10;;;;;;;14.82;10.98;;;;;;;;;;6211374;23;20052;-88
2023/06/22 02:20:37;;;;;;;13.40;11.50;;;;;;;;;;6211562;23;20012;-88
2023/06/22 02:23:03;;;;;;;14.65;12.27;;;;;;;;;;6210949;23;20342;-88
2023/06/22 02:25:29;;;;;;;15.48;12.70;;;;;;;;;;6212905;23;20385;-88
2023/06/22 02:27:55;;;;;;;14.18;11.25;;;;;;;;;;6209647;23;20020;-88
2023/06/22 02:30:21;;;;;;;15.32;11.82;;;;;;;;;;6212164;23;20008;-88
2023/06/22 02:32:47;;;;;;;15.05;12.38;;;;;;;;;;6212689;23;20051;-88
2023/06/22 02:35:13;;;;;;;14.65;11.15;;;;;;;;;;6210546;23;20019;-88
2023/06/22 02:37:41;;;;;;;16.60;10.75;;;;;;;;;;6212889;23;20009;-88
2023/06/22 02:40:11;;;;;;;15.05;11.70;;;;;;;;;;6210652;23;20380;-87
2023/06/22 02:42:37;;;;;;;;;;;;;;;;;;6211008;23;20044;-88
2023/06/22 02:45:03;;;;;;;13.25;10.48;;;;;;;;;;6210419;23;19966;-88
2023/06/22 02:47:29;;;;;;;14.15;11.00;;;;;;;;;;6210651;23;20063;-88
2023/06/22 02:49:55;;;;;;;17.73;12.45;;;;;;;;;;6210598;23;20411;-87
2023/06/22 02:52:21;;;;;;;17.50;12.50;;;;;;;;;;6210945;23;20013;-87
2023/06/22 02:54:47;;;;;;;19.80;14.98;;;;;;;;;;6210417;23;20035;-88
2023/06/22 02:57:13;;;;;;;21.38;15.88;;;;;;;;;;6208433;23;20032;-87
2023/06/22 02:59:41;;;;;;;22.75;15.27;;;;;;;;;;6208394;23;20023;-88
2023/06/22 03:02:07;;;;;;;22.02;15.63;;;;;;;;;;6210175;23;20024;-88
2023/06/22 03:04:34;;;;;;;23.95;15.60;;;;;;;;;;6210491;23;20107;-87
2023/06/22 03:07:01;;;;;;;18.20;14.30;;;;;;;;;;6210830;23;20013;-87
2023/06/22 03:09:27;;;;;;;19.25;13.90;;;;;;;;;;6210516;23;20020;-88
2023/06/22 03:11:53;;;;;;;19.25;14.38;;;;;;;;;;6184350;23;20020;-88
2023/06/22 03:14:19;;;;;;;17.50;13.27;;;;;;;;;;6211933;23;20084;-88
2023/06/22 03:16:45;;;;;;;15.85;13.25;;;;;;;;;;6209692;23;20044;-87
2023/06/22 03:19:12;;;;;;;16.50;12.40;;;;;;;;;;6210727;23;20052;-88
2023/06/22 03:21:38;;;;;;;16.05;12.07;;;;;;;;;;6212965;23;20012;-88
2023/06/22 03:24:05;;;;;;;16.83;12.35;;;;;;;;;;6210115;23;20016;-87
2023/06/22 03:26:31;;;;;;;17.92;12.75;;;;;;;;;;6210372;23;20062;-88
2023/06/22 03:28:57;;;;;;;14.50;11.23;;;;;;;;;;6210502;23;20063;-88
2023/06/22 03:31:23;;;;;;;16.98;13.43;;;;;;;;;;6210201;23;20465;-88
2023/06/22 03:33:50;;;;;;;14.05;11.50;;;;;;;;;;6208851;23;20019;-87
2023/06/22 03:36:18;;;;;;;13.10;10.85;;;;;;;;;;6209918;23;20063;-87
2023/06/22 03:38:45;;;;;;;13.05;10.05;;;;;;;;;;6212278;23;20013;-87
2023/06/22 03:41:11;;;;;;;10.73;8.70;;;;;;;;;;6209380;23;20040;-88
2023/06/22 03:43:37;;;;;;;11.63;9.38;;;;;;;;;;6215332;23;20040;-87
2023/06/22 03:46:03;;;;;;;10.25;9.13;;;;;;;;;;6214754;23;20020;-87
2023/06/22 03:48:29;;;;;;;9.98;8.93;;;;;;;;;;6213703;23;20334;-87
2023/06/22 03:50:55;;;;;;;9.60;8.50;;;;;;;;;;6212960;23;20023;-88
2023/06/22 03:53:21;;;;;;;9.15;7.35;;;;;;;;;;6211398;23;20016;-88
2023/06/22 03:55:51;;;;;;;9.75;8.75;;;;;;;;;;6209665;23;20401;-88
2023/06/22 03:58:18;;;;;;;9.80;8.15;;;;;;;;;;6209724;23;20013;-87
2023/06/22 04:00:45;;;;;;;8.30;7.43;;;;;;;;;;6211766;23;20012;-87
2023/06/22 04:03:11;;;;;;;9.60;8.13;;;;;;;;;;6208644;23;20264;-87
2023/06/22 04:05:39;;;;;;;8.77;7.65;;;;;;;;;;6209972;23;20013;-87
2023/06/22 04:08:05;;;;;;;9.70;7.97;;;;;;;;;;6211025;23;20067;-87
2023/06/22 04:10:31;;;;;;;9.32;8.02;;;;;;;;;;6209734;23;20044;-88
2023/06/22 04:12:57;;;;;;;11.02;9.43;;;;;;;;;;6212206;23;20012;-89
2023/06/22 04:15:23;;;;;;;10.20;8.85;;;;;;;;;;6210189;23;20013;-87
2023/06/22 04:17:49;;;;;;;11.13;9.68;;;;;;;;;;6220928;23;20326;-88
2023/06/22 04:20:15;;;;;;;11.50;9.73;;;;;;;;;;6223712;23;20016;-88
2023/06/22 04:22:41;;;;;;;10.73;9.63;;;;;;;;;;6212267;23;20020;-90
2023/06/22 04:25:07;;;;;;;12.25;8.77;;;;;;;;;;6210977;23;20338;-88
2023/06/22 04:27:37;;;;;;;12.15;9.57;;;;;;;;;;6214037;23;20110;-87
2023/06/22 04:30:04;;;;;;;14.65;10.35;;;;;;;;;;6212224;23;20569;-87
2023/06/22 04:32:30;;;;;;;10.55;9.45;;;;;;;;;;6212147;23;20127;-88
2023/06/22 04:34:56;;;;;;;18.60;12.18;;;;;;;;;;6213102;23;20032;-87
2023/06/22 04:37:23;;;;;;;17.45;13.25;;;;;;;;;;6211710;23;20071;-89
2023/06/22 04:39:49;;;;;;;20.75;14.15;;;;;;;;;;6211529;23;20009;-88
2023/06/22 04:42:16;;;;;;;18.80;14.45;;;;;;;;;;6183159;23;20100;-90
2023/06/22 04:44:42;;;;;;;19.73;13.35;;;;;;;;;;6210674;23;20012;-85
2023/06/22 04:47:08;;;;;;;19.27;13.38;;;;;;;;;;6210988;23;20084;-87
2023/06/22 04:49:35;;;;;;;18.17;13.73;;;;;;;;;;6210232;23;20319;-88
2023/06/22 04:52:08;;;;;;;22.30;15.30;;;;;;;;;;6210780;23;20013;-89
2023/06/22 04:54:35;;;;;;;19.63;14.65;;;;;;;;;;6212641;23;20603;-88
2023/06/22 04:57:09;;;;;;;21.30;14.60;;;;;;;;;;6211821;23;20016;-85
2023/06/22 04:59:35;;;;;;;23.42;15.45;;;;;;;;;;6212268;23;20078;-88
2023/06/22 05:02:02;;;;;;;20.45;14.40;;;;;;;;;;6213698;23;20017;-87
2023/06/22 05:04:31;;;;;;;22.50;15.93;;;;;;;;;;6211432;23;20473;-88
2023/06/22 05:07:00;;;;;;;21.90;15.45;;;;;;;;;;6211559;23;20009;-86
2023/06/22 05:09:26;;;;;;;22.50;15.88;;;;;;;;;;6209016;23;20016;-86
2023/06/22 05:11:52;;;;;;;21.88;14.45;;;;;;;;;;6210389;23;20063;-87
2023/06/22 05:14:18;;;;;;;22.70;16.35;;;;;;;;;;6212240;23;20365;-87
2023/06/22 05:16:45;;;;;;;24.05;16.90;;;;;;;;;;6185478;23;20101;-87
2023/06/22 05:19:11;;;;;;;20.70;16.00;;;;;;;;;;6185920;23;20078;-86
2023/06/22 05:21:37;;;;;;;22.98;16.88;;;;;;;;;;6209417;23;20044;-88
2023/06/22 05:24:04;;;;;;;22.98;16.45;;;;;;;;;;6208548;23;20012;-88
2023/06/22 05:26:31;;;;;;;21.83;15.93;;;;;;;;;;6210325;23;20330;-88
2023/06/22 05:28:57;;;;;;;25.25;16.50;;;;;;;;;;6210517;23;20040;-86
2023/06/22 05:31:24;;;;;;;22.55;16.10;;;;;;;;;;6209193;23;20027;-89
2023/06/22 05:33:52;;;;;;;22.88;16.55;;;;;;;;;;6212536;23;20446;-90
2023/06/22 05:36:24;;;;;;;25.58;16.30;;;;;;;;;;6210821;23;20450;-88
2023/06/22 05:38:51;;;;;;;23.38;16.17;;;;;;;;;;6210986;23;20218;-86
2023/06/22 05:41:17;;;;;;;24.27;16.27;;;;;;;;;;6209548;23;20030;-88
2023/06/22 05:43:43;;;;;;;19.27;14.40;;;;;;;;;;6211283;23;20012;-87
2023/06/22 05:46:09;;;;;;;21.45;16.38;;;;;;;;;;6208995;23;20025;-89
2023/06/22 05:48:35;;;;;;;23.35;14.95;;;;;;;;;;6208720;23;20016;-86
2023/06/22 05:51:01;;;;;;;21.35;13.75;;;;;;;;;;6211395;23;20035;-86
2023/06/22 05:53:27;;;;;;;19.10;14.88;;;;;;;;;;6212223;23;20410;-87
2023/06/22 05:55:53;;;;;;;19.10;13.52;;;;;;;;;;6212681;23;20100;-87
2023/06/22 05:58:19;;;;;;;18.95;13.75;;;;;;;;;;6212772;23;20016;-86
2023/06/22 06:00:46;;;;;;;18.00;12.95;;;;;;;;;;6214102;23;20020;-86
2023/06/22 06:03:12;;;;;;;19.67;13.40;;;;;;;;;;6219512;23;20019;-85
2023/06/22 06:05:38;;;;;;;16.45;11.88;;;;;;;;;;6220158;23;20012;-86
2023/06/22 06:08:05;;;;;;;16.42;12.68;;;;;;;;;;6221548;23;20393;-88
2023/06/22 06:10:32;;;;;;;15.25;12.07;;;;;;;;;;6221367;23;20012;-86
2023/06/22 06:12:58;;;;;;;16.92;13.02;;;;;;;;;;6219541;23;20083;-85
2023/06/22 06:15:24;;;;;;;15.65;11.52;;;;;;;;;;6221852;23;20005;-86
2023/06/22 06:17:51;;;;;;;15.52;12.13;;;;;;;;;;6221204;23;20017;-85
2023/06/22 06:20:23;;;;;;;14.95;11.27;;;;;;;;;;6227916;23;20032;-88
2023/06/22 06:22:50;;;;;;;13.63;9.55;;;;;;;;;;6212546;23;20138;-86
2023/06/22 06:25:16;;;;;;;13.32;10.50;;;;;;;;;;6211835;23;20008;-85
2023/06/22 06:27:43;;;;;;;15.25;10.32;;;;;;;;;;6212755;23;20013;-85
2023/06/22 06:30:10;;;;;;;12.10;9.73;;;;;;;;;;6210178;23;20019;-83
2023/06/22 06:32:36;;;;;;;12.10;9.18;;;;;;;;;;6211729;23;20456;-89
2023/06/22 06:35:02;;;;;;;12.43;9.85;;;;;;;;;;6209579;23;20088;-89
2023/06/22 06:37:28;;;;;;;13.02;9.43;;;;;;;;;;6210567;23;20373;-87
2023/06/22 06:39:54;;;;;;;12.30;8.57;;;;;;;;;;6212656;23;20016;-85
2023/06/22 06:42:22;;;;;;;12.25;8.95;;;;;;;;;;6209889;23;20023;-86
2023/06/22 06:44:48;;;;;;;10.82;8.50;;;;;;;;;;6211195;23;20019;-85
2023/06/22 06:47:14;;;;;;;12.65;8.32;;;;;;;;;;6208558;23;20449;-87
2023/06/22 06:49:40;;;;;;;11.23;8.45;;;;;;;;;;6209526;23;20048;-85
2023/06/22 06:52:06;;;;;;;10.07;7.45;;;;;;;;;;6207280;23;20016;-86
2023/06/22 06:54:32;;;;;;;9.32;8.00;;;;;;;;;;6207978;23;20062;-85
2023/06/22 06:56:58;;;;;;;9.77;7.00;;;;;;;;;;6210679;23;20017;-84
2023/06/22 06:59:24;;;;;;;10.48;6.60;;;;;;;;;;6210731;23;20068;-85
2023/06/22 07:01:50;;;;;;;8.50;6.78;;;;;;;;;;6210550;23;20020;-85
2023/06/22 07:04:16;;;;;;;8.63;6.82;;;;;;;;;;6207823;23;20019;-85
2023/06/22 07:06:43;;;;;;;8.88;7.45;;;;;;;;;;6210069;23;20100;-86
2023/06/22 07:09:09;;;;;;;9.10;7.00;;;;;;;;;;6211424;23;20020;-87
2023/06/22 07:11:36;;;;;;;10.13;6.35;;;;;;;;;;6211310;23;20016;-86
2023/06/22 07:14:02;;;;;;;10.45;6.60;;;;;;;;;;6209648;23;20485;-86
2023/06/22 07:16:29;;;;;;;8.15;6.22;;;;;;;;;;6210912;23;20080;-89
2023/06/22 07:18:55;;;;;;;8.57;6.38;;;;;;;;;;6209222;23;20087;-86
2023/06/22 07:21:21;;;;;;;8.10;6.57;;;;;;;;;;6209465;23;20040;-87
2023/06/22 07:23:47;;;;;;;7.82;5.78;;;;;;;;;;6210060;23;20430;-87
2023/06/22 07:26:13;;;;;;;10.38;6.47;;;;;;;;;;6211308;23;20013;-87
2023/06/22 07:28:40;;;;;;;8.13;5.55;;;;;;;;;;6211918;23;20025;-88
2023/06/22 07:31:06;;;;;;;7.80;6.10;;;;;;;;;;6210428;23;20092;-85
2023/06/22 07:33:32;;;;;;;7.22;6.28;;;;;;;;;;6209413;23;20017;-85
2023/06/22 07:35:58;;;;;;;6.47;5.32;;;;;;;;;;6209926;23;20107;-86
2023/06/22 07:38:24;;;;;;;6.07;4.72;;;;;;;;;;6210003;23;20044;-87
2023/06/22 07:40:53;;;;;;;7.60;4.95;;;;;;;;;;6210043;23;20342;-86
2023/06/22 07:43:19;;;;;;;7.82;5.30;;;;;;;;;;6210186;23;20017;-84
2023/06/22 07:45:52;;;;;;;4.72;4.28;;;;;;;;;;6210914;23;20017;-84
2023/06/22 07:48:18;;;;;;;6.22;4.85;;;;;;;;;;6208228;23;20020;-86
2023/06/22 07:50:44;;;;;;;5.25;4.57;;;;;;;;;;6210591;23;20319;-84
2023/06/22 07:53:10;;;;;;;5.90;4.60;;;;;;;;;;6208329;23;20016;-87
2023/06/22 07:55:36;;;;;;;6.70;5.50;;;;;;;;;;6209779;23;20013;-84
2023/06/22 07:58:02;;;;;;;7.50;5.15;;;;;;;;;;6211756;23;20020;-84
2023/06/22 08:00:28;;;;;;;5.03;4.20;;;;;;;;;;6212081;23;20012;-83
2023/06/22 08:02:54;;;;;;;7.22;4.60;;;;;;;;;;6214920;23;20016;-81
2023/06/22 08:05:20;;;;;;;5.28;3.80;;;;;;;;;;6212068;23;20074;-83
2023/06/22 08:07:47;;;;;;;5.63;3.95;;;;;;;;;;6212654;23;20051;-84
2023/06/22 08:10:13;;;;;;;5.95;4.72;;;;;;;;;;6211554;23;20040;-83
2023/06/22 08:12:42;;;;;;;6.18;4.72;;;;;;;;;;6212649;23;20019;-83
2023/06/22 08:15:09;;;;;;;6.47;3.92;;;;;;;;;;6213278;23;20021;-83
2023/06/22 08:17:37;;;;;;;6.10;5.05;;;;;;;;;;6211506;23;20087;-85
2023/06/22 08:20:09;;;;;;;5.75;4.63;;;;;;;;;;6212382;23;20380;-86
2023/06/22 08:22:36;;;;;;;5.32;4.55;;;;;;;;;;6210355;23;20020;-84
2023/06/22 08:25:03;;;;;;;6.13;4.30;;;;;;;;;;6211713;23;20052;-84
2023/06/22 08:27:30;;;;;;;6.63;4.97;;;;;;;;;;6211900;23;20023;-85
2023/06/22 08:29:58;;;;;;;5.55;4.90;;;;;;;;;;6212534;23;20012;-83
2023/06/22 08:32:26;;;;;;;5.93;5.20;;;;;;;;;;6211457;23;20012;-83
2023/06/22 08:34:52;;;;;;;8.25;4.90;;;;;;;;;;6211182;23;20024;-84
2023/06/22 08:37:18;;;;;;;6.18;4.80;;;;;;;;;;6212037;23;20055;-83
2023/06/22 08:39:44;;;;;;;8.32;4.97;;;;;;;;;;6212216;23;20015;-83
2023/06/22 08:42:10;;;;;;;5.80;4.32;;;;;;;;;;6212014;23;20334;-82
2023/06/22 08:44:36;;;;;;;6.68;4.63;;;;;;;;;;6211711;23;20055;-83
2023/06/22 08:47:03;;;;;;;7.78;5.13;;;;;;;;;;6212286;23;20013;-84
2023/06/22 08:49:29;;;;;;;6.97;5.05;;;;;;;;;;6212951;23;20020;-85
2023/06/22 08:51:56;;;;;;;7.32;4.60;;;;;;;;;;6212141;23;20013;-85
2023/06/22 08:54:22;;;;;;;7.82;5.50;;;;;;;;;;6210294;23;20027;-86
2023/06/22 08:56:48;;;;;;;7.43;5.30;;;;;;;;;;6211787;23;20023;-83
2023/06/22 08:59:15;;;;;;;7.95;4.88;;;;;;;;;;6211978;23;20024;-85
2023/06/22 09:01:45;;;;;;;5.57;4.75;;;;;;;;;;6211365;23;20386;-83
2023/06/22 09:04:11;;;;;;;5.93;4.50;;;;;;;;;;6209614;23;20095;-84
2023/06/22 09:06:44;;;;;;;5.75;4.75;;;;;;;;;;6210876;23;20111;-84
2023/06/22 09:09:10;;;;;;;6.55;5.03;;;;;;;;;;6212531;23;20023;-84
2023/06/22 09:11:36;;;;;;;7.03;4.40;;;;;;;;;;6210434;23;20151;-87
2023/06/22 09:14:03;;;;;;;5.90;5.00;;;;;;;;;;6212176;23;20060;-84
2023/06/22 09:16:29;;;;;;;7.25;4.25;;;;;;;;;;6211521;23;20009;-84
2023/06/22 09:18:55;;;;;;;4.60;3.83;;;;;;;;;;6211576;23;20024;-82
2023/06/22 09:21:22;;;;;;;6.95;4.00;;;;;;;;;;6211008;23;20082;-86
2023/06/22 09:23:51;;;;;;;6.68;4.28;;;;;;;;;;6211085;23;20048;-87
2023/06/22 09:26:17;;;;;;;6.63;4.82;;;;;;;;;;6211205;23;20071;-88
2023/06/22 09:28:43;;;;;;;5.63;5.13;;;;;;;;;;6211937;23;20063;-86
2023/06/22 09:31:09;;;;;;;5.90;5.13;;;;;;;;;;6211193;23;20105;-87
2023/06/22 09:33:36;;;;;;;6.38;5.35;;;;;;;;;;6210945;23;20385;-85
2023/06/22 09:36:02;;;;;;;7.97;4.90;;;;;;;;;;6209323;23;20020;-83
2023/06/22 09:38:28;;;;;;;6.35;5.38;;;;;;;;;;6210784;23;20009;-84
2023/06/22 09:40:54;;;;;;;6.45;5.10;;;;;;;;;;6211596;23;20016;-83
2023/06/22 09:43:20;;;;;;;9.23;5.25;;;;;;;;;;6210870;23;20013;-87
2023/06/22 09:45:46;;;;;;;8.93;5.68;;;;;;;;;;6184138;23;20099;-83
2023/06/22 09:48:12;;;;;;;6.03;4.75;;;;;;;;;;6211119;23;20017;-85
2023/06/22 09:50:38;;;;;;;6.43;5.40;;;;;;;;;;6212147;23;20466;-85
2023/06/22 09:53:04;;;;;;;5.82;4.70;;;;;;;;;;6212282;23;20024;-87
2023/06/22 09:55:30;;;;;;;6.70;5.25;;;;;;;;;;6221476;23;20311;-85
2023/06/22 09:57:56;;;;;;;9.90;5.68;;;;;;;;;;6227324;23;20059;-85
2023/06/22 10:00:23;;;;;;;6.65;5.35;;;;;;;;;;6221070;23;20024;-83
2023/06/22 10:02:50;;;;;;;6.57;5.60;;;;;;;;;;6215209;23;20016;-88
2023/06/22 10:05:17;;;;;;;8.45;5.50;;;;;;;;;;6212987;23;20025;-87
2023/06/22 10:07:43;;;;;;;9.65;4.88;;;;;;;;;;6210859;23;20052;-84
2023/06/22 10:10:09;;;;;;;6.13;5.45;;;;;;;;;;6212116;23;20012;-86
2023/06/22 10:12:35;;;;;;;7.85;5.28;;;;;;;;;;6209980;23;20086;-86
2023/06/22 10:15:01;;;;;;;6.95;4.95;;;;;;;;;;6210384;23;20021;-85
2023/06/22 10:17:27;;;;;;;6.47;5.25;;;;;;;;;;6210521;23;20044;-86
2023/06/22 10:19:53;;;;;;;7.07;5.25;;;;;;;;;;6211584;23;20063;-85
2023/06/22 10:22:19;;;;;;;6.97;4.55;;;;;;;;;;6208606;23;20043;-83
2023/06/22 10:24:45;;;;;;;6.40;5.50;;;;;;;;;;6209055;23;20020;-86
2023/06/22 10:27:12;;;;;;;6.72;5.45;;;;;;;;;;6209727;23;20016;-86
2023/06/22 10:29:38;;;;;;;6.55;5.32;;;;;;;;;;6210440;23;20048;-85
2023/06/22 10:32:04;;;;;;;6.32;4.28;;;;;;;;;;6210390;23;20080;-84
2023/06/22 10:34:30;;;;;;;6.22;4.65;;;;;;;;;;6211073;23;20009;-86
2023/06/22 10:36:56;;;;;;;6.88;5.10;;;;;;;;;;6209245;23;20023;-86
2023/06/22 10:39:22;;;;;;;6.20;5.18;;;;;;;;;;6211128;23;20012;-88
2023/06/22 10:41:48;;;;;;;7.90;5.60;;;;;;;;;;6208879;23;20013;-87
2023/06/22 10:44:14;;;;;;;7.07;5.05;;;;;;;;;;6212691;23;20020;-88
2023/06/22 10:46:40;;;;;;;7.78;5.22;;;;;;;;;;6210321;23;20048;-88
2023/06/22 10:49:06;;;;;;;6.18;5.28;;;;;;;;;;6186459;23;20013;-92
2023/06/22 10:51:33;;;;;;;5.90;5.03;;;;;;;;;;6212938;23;20474;-93
2023/06/22 10:53:59;;;;;;;5.97;4.45;;;;;;;;;;6211245;23;20370;-87
2023/06/22 10:56:25;;;;;;;7.35;4.78;;;;;;;;;;6211209;23;20028;-88
2023/06/22 10:58:51;;;;;;;6.93;4.75;;;;;;;;;;6212733;23;20334;-90
2023/06/22 11:01:17;;;;;;;6.80;5.38;;;;;;;;;;6211966;23;20087;-89
2023/06/22 11:03:43;;;;;;;7.35;5.55;;;;;;;;;;6212798;23;20020;-88
2023/06/22 11:06:09;;;;;;;6.53;4.75;;;;;;;;;;6210385;23;20023;-86
2023/06/22 11:08:35;;;;;;;7.25;4.70;;;;;;;;;;6212420;23;20497;-85
2023/06/22 11:11:01;;;;;;;5.63;4.38;;;;;;;;;;6212439;23;20048;-88
2023/06/22 11:13:27;;;;;;;5.35;3.95;;;;;;;;;;6211799;23;20044;-88
2023/06/22 11:15:53;;;;;;;4.43;3.92;;;;;;;;;;6209783;23;20461;-90
2023/06/22 11:18:19;;;;;;;5.97;4.90;;;;;;;;;;6211242;23;20023;-91
2023/06/22 11:20:47;;;;;;;5.18;4.70;;;;;;;;;;6212155;23;20008;-85
2023/06/22 11:23:13;;;;;;;4.93;4.40;;;;;;;;;;6211649;23;20100;-90
2023/06/22 11:25:39;;;;;;;5.68;4.57;;;;;;;;;;6211230;23;20017;-87
2023/06/22 11:28:05;;;;;;;7.18;4.93;;;;;;;;;;6210845;23;20043;-92
2023/06/22 11:30:31;;;;;;;6.80;4.70;;;;;;;;;;6210201;23;20070;-90
2023/06/22 11:32:59;;;;;;;6.80;5.25;;;;;;;;;;6211946;23;20457;-88
2023/06/22 11:35:25;;;;;;;5.85;4.80;;;;;;;;;;6212251;23;20020;-92
2023/06/22 11:37:51;;;;;;;5.18;4.68;;;;;;;;;;6212573;23;20422;-88
2023/06/22 11:40:17;;;;;;;5.28;4.15;;;;;;;;;;6184607;23;20008;-90
2023/06/22 11:42:44;;;;;;;7.53;4.70;;;;;;;;;;6185716;23;20063;-90
2023/06/22 11:45:10;;;;;;;6.35;4.70;;;;;;;;;;6211409;23;20028;-84
2023/06/22 11:47:36;;;;;;;6.30;5.18;;;;;;;;;;6212131;23;20008;-88
2023/06/22 11:50:03;;;;;;;7.03;4.85;;;;;;;;;;6210207;23;20039;-86
2023/06/22 11:52:29;;;;;;;8.18;4.78;;;;;;;;;;6212510;23;20438;-89
2023/06/22 11:54:55;;;;;;;6.88;5.40;;;;;;;;;;6212297;23;20020;-86
2023/06/22 11:57:21;;;;;;;7.65;5.03;;;;;;;;;;6210497;23;20021;-90
2023/06/22 11:59:47;;;;;;;5.47;4.97;;;;;;;;;;6213341;23;20016;-84
2023/06/22 12:02:13;;;;;;;5.57;3.92;;;;;;;;;;6212861;23;20371;-89
2023/06/22 12:04:39;;;;;;;6.47;5.00;;;;;;;;;;6212218;23;20035;-88
2023/06/22 12:07:05;;;;;;;8.02;4.53;;;;;;;;;;6211347;23;20012;-90
2023/06/22 12:09:31;;;;;;;5.60;4.30;;;;;;;;;;6212861;23;20016;-88
2023/06/22 12:11:57;;;;;;;4.43;4.03;;;;;;;;;;6186047;23;20012;-88
2023/06/22 12:14:23;;;;;;;5.10;4.60;;;;;;;;;;6211874;23;20024;-87
2023/06/22 12:16:49;;;;;;;5.45;4.85;;;;;;;;;;6212890;23;20068;-84
2023/06/22 12:19:15;;;;;;;7.13;5.55;;;;;;;;;;6218162;23;20012;-90
2023/06/22 12:21:41;;;;;;;7.07;5.15;;;;;;;;;;6219264;23;20012;-84
2023/06/22 12:24:07;;;;;;;4.70;4.20;;;;;;;;;;6217551;23;20016;-85
2023/06/22 12:26:33;;;;;;;7.28;5.25;;;;;;;;;;6219102;23;20017;-87
2023/06/22 12:28:59;;;;;;;6.70;5.03;;;;;;;;;;6219466;23;20028;-88
2023/06/22 12:31:25;;;;;;;6.40;4.60;;;;;;;;;;6220469;23;20016;-89
2023/06/22 12:33:51;;;;;;;5.18;4.65;;;;;;;;;;6223294;23;20068;-88
2023/06/22 12:36:17;;;;;;;6.15;5.32;;;;;;;;;;6226317;23;20044;-88
2023/06/22 12:38:43;;;;;;;5.50;4.32;;;;;;;;;;6214856;23;20012;-88
2023/06/22 12:41:09;;;;;;;5.40;4.32;;;;;;;;;;6188624;23;20017;-86
2023/06/22 12:43:35;;;;;;;6.10;4.50;;;;;;;;;;6214802;23;20469;-84
2023/06/22 12:46:01;;;;;;;7.00;5.32;;;;;;;;;;6214633;23;20009;-89
2023/06/22 12:48:28;;;;;;;7.43;4.78;;;;;;;;;;6211381;23;20098;-88
2023/06/22 12:50:54;;;;;;;6.20;4.47;;;;;;;;;;6211963;23;20130;-87
2023/06/22 12:53:22;;;;;;;5.50;4.95;;;;;;;;;;6211257;23;20063;-85
2023/06/22 12:55:48;;;;;;;5.57;4.65;;;;;;;;;;6213761;23;20066;-84
2023/06/22 12:58:14;;;;;;;5.47;4.75;;;;;;;;;;6213986;23;20012;-86
2023/06/22 13:00:40;;;;;;;7.78;5.03;;;;;;;;;;6215093;23;20031;-87
2023/06/22 13:03:06;;;;;;;7.68;5.10;;;;;;;;;;6213815;23;20096;-86
2023/06/22 13:05:34;;;;;;;7.45;4.68;;;;;;;;;;6213069;23;20020;-85
2023/06/22 13:08:00;;;;;;;7.03;4.75;;;;;;;;;;6213089;23;20021;-87
2023/06/22 13:10:26;;;;;;;4.97;3.88;;;;;;;;;;6213318;23;20386;-85
2023/06/22 13:13:00;;;;;;;5.57;4.68;;;;;;;;;;6210647;23;20017;-86
2023/06/22 13:15:26;;;;;;;4.60;4.18;;;;;;;;;;6211730;23;20492;-90
2023/06/22 13:17:52;;;;;;;5.65;4.15;;;;;;;;;;6212148;23;20020;-88
2023/06/22 13:20:18;;;;;;;4.50;4.10;;;;;;;;;;6211568;23;20012;-85
2023/06/22 13:22:44;;;;;;;4.07;3.50;;;;;;;;;;6212440;23;20432;-87
2023/06/22 13:25:12;;;;;;;4.35;3.67;;;;;;;;;;6211214;23;20013;-90
2023/06/22 13:27:39;;;;;;;5.15;3.45;;;;;;;;;;6213479;23;20013;-86
2023/06/22 13:30:05;;;;;;;4.18;3.78;;;;;;;;;;6211489;23;20016;-86
2023/06/22 13:32:31;;;;;;;3.90;3.20;;;;;;;;;;6212957;23;20055;-86
2023/06/22 13:34:57;;;;;;;4.93;3.72;;;;;;;;;;6212182;23;20024;-87
2023/06/22 13:37:23;;;;;;;4.45;3.58;;;;;;;;;;6210930;23;20067;-85
2023/06/22 13:39:49;;;;;;;3.65;3.22;;;;;;;;;;6210992;23;20044;-86
2023/06/22 13:42:15;;;;;;;4.07;3.20;;;;;;;;;;6210128;23;20018;-85
2023/06/22 13:44:41;;;;;;;4.30;3.78;;;;;;;;;;6211232;23;20095;-83
2023/06/22 13:47:07;;;;;;;3.95;3.55;;;;;;;;;;6213703;23;20008;-84
2023/06/22 13:49:33;;;;;;;5.82;4.15;;;;;;;;;;6210558;23;20013;-86
2023/06/22 13:51:59;;;;;;;6.93;3.53;;;;;;;;;;6212576;23;20506;-86
2023/06/22 13:54:25;;;;;;;4.85;4.30;;;;;;;;;;6210346;23;20024;-86
2023/06/22 13:56:51;;;;;;;10.98;4.38;;;;;;;;;;6210219;23;20035;-84
2023/06/22 13:59:18;;;;;;;5.55;4.38;;;;;;;;;;6210639;23;20013;-85
2023/06/22 14:01:44;;;;;;;5.43;4.85;;;;;;;;;;6212716;23;20032;-82
2023/06/22 14:04:10;;;;;;;5.18;4.40;;;;;;;;;;6212305;23;20009;-82
2023/06/22 14:06:36;;;;;;;4.65;4.15;;;;;;;;;;6212292;23;20063;-84
2023/06/22 14:09:02;;;;;;;5.75;5.28;;;;;;;;;;6212783;23;20012;-82
2023/06/22 14:11:28;;;;;;;6.25;4.90;;;;;;;;;;6212151;23;20012;-84
2023/06/22 14:13:54;;;;;;;5.80;4.38;;;;;;;;;;6211057;23;20023;-87
2023/06/22 14:16:20;;;;;;;5.88;4.60;;;;;;;;;;6212342;23;20036;-83
2023/06/22 14:18:46;;;;;;;7.85;4.65;;;;;;;;;;6210537;23;20096;-84
2023/06/22 14:21:12;;;;;;;6.85;4.63;;;;;;;;;;6210651;23;20059;-84
2023/06/22 14:23:38;;;;;;;5.25;4.18;;;;;;;;;;6211137;23;20095;-87
2023/06/22 14:26:04;;;;;;;5.93;4.60;;;;;;;;;;6210815;23;20055;-85
2023/06/22 14:28:30;;;;;;;6.15;4.55;;;;;;;;;;6212707;23;20020;-87